sensor_id;sensor_type;location;lat;lon;timestamp;temperature;humidity
5130;DHT22;2583;50.946;6.954;2022-11-10T00:00:55;12.40;99.90
5130;DHT22;2583;50.946;6.954;2022-11-10T00:03:22;12.30;99.90
5130;DHT22;2583;50.946;6.954;2022-11-10T00:05:49;12.40;99.90
5130;DHT22;2583;50.946;6.954;2022-11-10T00:08:16;12.40;99.90
5130;DHT22;2583;50.946;6.954;2022-11-10T00:10:43;12.30;99.90
5130;DHT22;2583;50.946;6.954;2022-11-10T00:13:29;12.30;99.90
5130;DHT22;2583;50.946;6.954;2022-11-10T00:15:58;12.40;99.90
5130;DHT22;2583;50.946;6.954;2022-11-10T00:18:44;12.40;99.90
5130;DHT22;2583;50.946;6.954;2022-11-10T00:21:12;12.40;99.90
5130;DHT22;2583;50.946;6.954;2022-11-10T00:23:39;12.40;99.90
5130;DHT22;2583;50.946;6.954;2022-11-10T00:26:11;12.40;99.90
5130;DHT22;2583;50.946;6.954;2022-11-10T00:28:38;12.40;99.90
5130;DHT22;2583;50.946;6.954;2022-11-10T00:31:05;12.40;99.90
5130;DHT22;2583;50.946;6.954;2022-11-10T00:33:36;12.30;99.90
5130;DHT22;2583;50.946;6.954;2022-11-10T00:36:04;12.30;99.90
5130;DHT22;2583;50.946;6.954;2022-11-10T00:38:31;12.30;99.90
5130;DHT22;2583;50.946;6.954;2022-11-10T00:40:59;12.30;99.90
5130;DHT22;2583;50.946;6.954;2022-11-10T00:43:27;12.20;99.90
5130;DHT22;2583;50.946;6.954;2022-11-10T00:45:55;12.20;99.90
5130;DHT22;2583;50.946;6.954;2022-11-10T00:48:22;12.20;99.90
5130;DHT22;2583;50.946;6.954;2022-11-10T00:50:49;12.20;99.90
5130;DHT22;2583;50.946;6.954;2022-11-10T00:53:15;12.20;99.90
5130;DHT22;2583;50.946;6.954;2022-11-10T00:55:42;12.20;99.90
5130;DHT22;2583;50.946;6.954;2022-11-10T00:58:09;12.20;99.90
5130;DHT22;2583;50.946;6.954;2022-11-10T01:00:36;12.10;99.90
5130;DHT22;2583;50.946;6.954;2022-11-10T01:03:03;12.10;99.90
5130;DHT22;2583;50.946;6.954;2022-11-10T01:05:30;12.10;99.90
5130;DHT22;2583;50.946;6.954;2022-11-10T01:07:57;12.10;99.90
5130;DHT22;2583;50.946;6.954;2022-11-10T01:10:25;12.10;99.90
5130;DHT22;2583;50.946;6.954;2022-11-10T01:12:52;12.10;99.90
5130;DHT22;2583;50.946;6.954;2022-11-10T01:15:19;12.10;99.90
5130;DHT22;2583;50.946;6.954;2022-11-10T01:17:54;12.10;99.90
5130;DHT22;2583;50.946;6.954;2022-11-10T01:20:22;12.10;99.90
5130;DHT22;2583;50.946;6.954;2022-11-10T01:22:49;12.10;99.90
5130;DHT22;2583;50.946;6.954;2022-11-10T01:25:16;12.10;99.90
5130;DHT22;2583;50.946;6.954;2022-11-10T01:27:43;12.00;99.90
5130;DHT22;2583;50.946;6.954;2022-11-10T01:30:10;12.00;99.90
5130;DHT22;2583;50.946;6.954;2022-11-10T01:32:37;12.00;99.90
5130;DHT22;2583;50.946;6.954;2022-11-10T01:35:04;12.00;99.90
5130;DHT22;2583;50.946;6.954;2022-11-10T01:37:31;12.00;99.90
5130;DHT22;2583;50.946;6.954;2022-11-10T01:39:58;12.00;99.90
5130;DHT22;2583;50.946;6.954;2022-11-10T01:42:27;12.00;99.90
5130;DHT22;2583;50.946;6.954;2022-11-10T01:48:01;11.90;99.90
5130;DHT22;2583;50.946;6.954;2022-11-10T01:50:33;12.00;99.90
5130;DHT22;2583;50.946;6.954;2022-11-10T01:53:03;11.90;99.90
5130;DHT22;2583;50.946;6.954;2022-11-10T01:55:31;11.90;99.90
5130;DHT22;2583;50.946;6.954;2022-11-10T01:57:59;11.90;99.90
5130;DHT22;2583;50.946;6.954;2022-11-10T02:00:26;11.90;99.90
5130;DHT22;2583;50.946;6.954;2022-11-10T02:03:00;11.90;99.90
5130;DHT22;2583;50.946;6.954;2022-11-10T02:05:28;11.90;99.90
5130;DHT22;2583;50.946;6.954;2022-11-10T02:07:55;11.80;99.90
5130;DHT22;2583;50.946;6.954;2022-11-10T02:10:22;11.80;99.90
5130;DHT22;2583;50.946;6.954;2022-11-10T02:12:49;11.80;99.90
5130;DHT22;2583;50.946;6.954;2022-11-10T02:15:17;11.80;99.90
5130;DHT22;2583;50.946;6.954;2022-11-10T02:17:47;11.80;99.90
5130;DHT22;2583;50.946;6.954;2022-11-10T02:20:16;11.80;99.90
5130;DHT22;2583;50.946;6.954;2022-11-10T02:22:44;11.70;99.90
5130;DHT22;2583;50.946;6.954;2022-11-10T02:25:13;11.70;99.90
5130;DHT22;2583;50.946;6.954;2022-11-10T02:27:41;11.70;99.90
5130;DHT22;2583;50.946;6.954;2022-11-10T02:30:08;11.70;99.90
5130;DHT22;2583;50.946;6.954;2022-11-10T02:32:35;11.60;99.90
5130;DHT22;2583;50.946;6.954;2022-11-10T02:35:03;11.60;99.90
5130;DHT22;2583;50.946;6.954;2022-11-10T02:37:30;11.60;99.90
5130;DHT22;2583;50.946;6.954;2022-11-10T02:39:56;11.60;99.90
5130;DHT22;2583;50.946;6.954;2022-11-10T02:42:23;11.60;99.90
5130;DHT22;2583;50.946;6.954;2022-11-10T02:44:50;11.60;99.90
5130;DHT22;2583;50.946;6.954;2022-11-10T02:47:17;11.60;99.90
5130;DHT22;2583;50.946;6.954;2022-11-10T02:49:43;11.70;99.90
5130;DHT22;2583;50.946;6.954;2022-11-10T02:52:10;11.60;99.90
5130;DHT22;2583;50.946;6.954;2022-11-10T02:54:37;11.60;99.90
5130;DHT22;2583;50.946;6.954;2022-11-10T02:57:04;11.60;99.90
5130;DHT22;2583;50.946;6.954;2022-11-10T02:59:30;11.70;99.90
5130;DHT22;2583;50.946;6.954;2022-11-10T03:01:57;11.70;99.90
5130;DHT22;2583;50.946;6.954;2022-11-10T03:04:24;11.70;99.90
5130;DHT22;2583;50.946;6.954;2022-11-10T03:06:51;11.80;99.90
5130;DHT22;2583;50.946;6.954;2022-11-10T03:09:17;11.80;99.90
5130;DHT22;2583;50.946;6.954;2022-11-10T03:11:44;11.80;99.90
5130;DHT22;2583;50.946;6.954;2022-11-10T03:14:11;11.80;99.90
5130;DHT22;2583;50.946;6.954;2022-11-10T03:16:37;11.80;99.90
5130;DHT22;2583;50.946;6.954;2022-11-10T03:19:04;11.80;99.90
5130;DHT22;2583;50.946;6.954;2022-11-10T03:21:31;11.70;99.90
5130;DHT22;2583;50.946;6.954;2022-11-10T03:23:57;11.80;99.90
5130;DHT22;2583;50.946;6.954;2022-11-10T03:26:24;11.70;99.90
5130;DHT22;2583;50.946;6.954;2022-11-10T03:28:51;11.60;99.90
5130;DHT22;2583;50.946;6.954;2022-11-10T03:31:18;11.60;99.90
5130;DHT22;2583;50.946;6.954;2022-11-10T03:33:44;11.70;99.90
5130;DHT22;2583;50.946;6.954;2022-11-10T03:36:11;11.60;99.90
5130;DHT22;2583;50.946;6.954;2022-11-10T03:38:39;11.50;99.90
5130;DHT22;2583;50.946;6.954;2022-11-10T03:41:05;11.60;99.90
5130;DHT22;2583;50.946;6.954;2022-11-10T03:43:48;11.50;99.90
5130;DHT22;2583;50.946;6.954;2022-11-10T03:46:16;11.50;99.90
5130;DHT22;2583;50.946;6.954;2022-11-10T03:48:43;11.50;99.90
5130;DHT22;2583;50.946;6.954;2022-11-10T03:51:18;11.50;99.90
5130;DHT22;2583;50.946;6.954;2022-11-10T03:53:45;11.50;99.90
5130;DHT22;2583;50.946;6.954;2022-11-10T03:56:12;11.40;99.90
5130;DHT22;2583;50.946;6.954;2022-11-10T03:58:39;11.40;99.90
5130;DHT22;2583;50.946;6.954;2022-11-10T04:01:06;11.40;99.90
5130;DHT22;2583;50.946;6.954;2022-11-10T04:03:33;11.40;99.90
5130;DHT22;2583;50.946;6.954;2022-11-10T04:06:00;11.40;99.90
5130;DHT22;2583;50.946;6.954;2022-11-10T04:08:45;11.40;99.90
5130;DHT22;2583;50.946;6.954;2022-11-10T04:11:28;11.40;99.90
5130;DHT22;2583;50.946;6.954;2022-11-10T04:14:14;11.40;99.90
5130;DHT22;2583;50.946;6.954;2022-11-10T04:17:00;11.30;99.90
5130;DHT22;2583;50.946;6.954;2022-11-10T04:19:28;11.30;99.90
5130;DHT22;2583;50.946;6.954;2022-11-10T04:21:55;11.20;99.90
5130;DHT22;2583;50.946;6.954;2022-11-10T04:24:22;11.20;99.90
5130;DHT22;2583;50.946;6.954;2022-11-10T04:26:49;11.20;99.90
5130;DHT22;2583;50.946;6.954;2022-11-10T04:29:17;11.10;99.90
5130;DHT22;2583;50.946;6.954;2022-11-10T04:31:44;11.20;99.90
5130;DHT22;2583;50.946;6.954;2022-11-10T04:34:13;11.20;99.90
5130;DHT22;2583;50.946;6.954;2022-11-10T04:36:42;11.10;99.90
5130;DHT22;2583;50.946;6.954;2022-11-10T04:39:09;11.10;99.90
5130;DHT22;2583;50.946;6.954;2022-11-10T04:41:37;11.00;99.90
5130;DHT22;2583;50.946;6.954;2022-11-10T04:44:04;11.00;99.90
5130;DHT22;2583;50.946;6.954;2022-11-10T04:46:31;10.90;99.90
5130;DHT22;2583;50.946;6.954;2022-11-10T04:48:59;10.90;99.90
5130;DHT22;2583;50.946;6.954;2022-11-10T04:51:34;10.90;99.90
5130;DHT22;2583;50.946;6.954;2022-11-10T04:54:03;10.90;99.90
5130;DHT22;2583;50.946;6.954;2022-11-10T04:56:30;10.90;99.90
5130;DHT22;2583;50.946;6.954;2022-11-10T04:58:57;11.00;99.90
5130;DHT22;2583;50.946;6.954;2022-11-10T05:01:25;11.00;99.90
5130;DHT22;2583;50.946;6.954;2022-11-10T05:03:53;11.00;99.90
5130;DHT22;2583;50.946;6.954;2022-11-10T05:06:20;11.00;99.90
5130;DHT22;2583;50.946;6.954;2022-11-10T05:08:47;11.00;99.90
5130;DHT22;2583;50.946;6.954;2022-11-10T05:11:14;11.00;99.90
5130;DHT22;2583;50.946;6.954;2022-11-10T05:13:42;10.90;99.90
5130;DHT22;2583;50.946;6.954;2022-11-10T05:16:09;10.90;99.90
5130;DHT22;2583;50.946;6.954;2022-11-10T05:18:36;10.80;99.90
5130;DHT22;2583;50.946;6.954;2022-11-10T05:21:03;10.80;99.90
5130;DHT22;2583;50.946;6.954;2022-11-10T05:23:30;10.80;99.90
5130;DHT22;2583;50.946;6.954;2022-11-10T05:26:10;10.80;99.90
5130;DHT22;2583;50.946;6.954;2022-11-10T05:28:39;10.80;99.90
5130;DHT22;2583;50.946;6.954;2022-11-10T05:31:06;10.80;99.90
5130;DHT22;2583;50.946;6.954;2022-11-10T05:33:34;10.80;99.90
5130;DHT22;2583;50.946;6.954;2022-11-10T05:36:01;10.80;99.90
5130;DHT22;2583;50.946;6.954;2022-11-10T05:38:28;10.80;99.90
5130;DHT22;2583;50.946;6.954;2022-11-10T05:40:54;10.80;99.90
5130;DHT22;2583;50.946;6.954;2022-11-10T05:43:21;10.90;99.90
5130;DHT22;2583;50.946;6.954;2022-11-10T05:45:49;10.80;99.90
5130;DHT22;2583;50.946;6.954;2022-11-10T05:48:15;10.80;99.90
5130;DHT22;2583;50.946;6.954;2022-11-10T05:50:43;11.00;99.90
5130;DHT22;2583;50.946;6.954;2022-11-10T05:53:10;10.90;99.90
5130;DHT22;2583;50.946;6.954;2022-11-10T05:55:37;11.00;99.90
5130;DHT22;2583;50.946;6.954;2022-11-10T05:58:04;10.90;99.90
5130;DHT22;2583;50.946;6.954;2022-11-10T06:00:31;10.90;99.90
5130;DHT22;2583;50.946;6.954;2022-11-10T06:03:24;10.90;99.90
5130;DHT22;2583;50.946;6.954;2022-11-10T06:05:52;10.90;99.90
5130;DHT22;2583;50.946;6.954;2022-11-10T06:08:19;10.80;99.90
5130;DHT22;2583;50.946;6.954;2022-11-10T06:10:46;10.90;99.90
5130;DHT22;2583;50.946;6.954;2022-11-10T06:13:13;10.80;99.90
5130;DHT22;2583;50.946;6.954;2022-11-10T06:15:40;10.80;99.90
5130;DHT22;2583;50.946;6.954;2022-11-10T06:18:13;10.80;99.90
5130;DHT22;2583;50.946;6.954;2022-11-10T06:20:39;10.90;99.90
5130;DHT22;2583;50.946;6.954;2022-11-10T06:23:09;10.80;99.90
5130;DHT22;2583;50.946;6.954;2022-11-10T06:25:37;10.90;99.90
5130;DHT22;2583;50.946;6.954;2022-11-10T06:28:05;10.90;99.90
5130;DHT22;2583;50.946;6.954;2022-11-10T06:30:35;10.90;99.90
5130;DHT22;2583;50.946;6.954;2022-11-10T06:33:02;10.90;99.90
5130;DHT22;2583;50.946;6.954;2022-11-10T06:35:29;10.90;99.90
5130;DHT22;2583;50.946;6.954;2022-11-10T06:40:24;10.90;99.90
5130;DHT22;2583;50.946;6.954;2022-11-10T06:42:50;10.90;99.90
5130;DHT22;2583;50.946;6.954;2022-11-10T06:45:17;11.00;99.90
5130;DHT22;2583;50.946;6.954;2022-11-10T06:47:44;11.00;99.90
5130;DHT22;2583;50.946;6.954;2022-11-10T06:50:11;11.00;99.90
5130;DHT22;2583;50.946;6.954;2022-11-10T06:52:37;11.00;99.90
5130;DHT22;2583;50.946;6.954;2022-11-10T06:55:04;11.00;99.90
5130;DHT22;2583;50.946;6.954;2022-11-10T06:57:38;11.00;99.90
5130;DHT22;2583;50.946;6.954;2022-11-10T07:00:05;11.10;99.90
5130;DHT22;2583;50.946;6.954;2022-11-10T07:02:32;11.10;99.90
5130;DHT22;2583;50.946;6.954;2022-11-10T07:04:59;11.20;99.90
5130;DHT22;2583;50.946;6.954;2022-11-10T07:07:26;11.20;99.90
5130;DHT22;2583;50.946;6.954;2022-11-10T07:09:52;11.20;99.90
5130;DHT22;2583;50.946;6.954;2022-11-10T07:12:19;11.20;99.90
5130;DHT22;2583;50.946;6.954;2022-11-10T07:14:46;11.20;99.90
5130;DHT22;2583;50.946;6.954;2022-11-10T07:17:13;11.20;99.90
5130;DHT22;2583;50.946;6.954;2022-11-10T07:19:40;11.20;99.90
5130;DHT22;2583;50.946;6.954;2022-11-10T07:22:07;11.20;99.90
5130;DHT22;2583;50.946;6.954;2022-11-10T07:24:36;11.20;99.90
5130;DHT22;2583;50.946;6.954;2022-11-10T07:27:03;11.30;99.90
5130;DHT22;2583;50.946;6.954;2022-11-10T07:29:30;11.30;99.90
5130;DHT22;2583;50.946;6.954;2022-11-10T07:31:57;11.30;99.90
5130;DHT22;2583;50.946;6.954;2022-11-10T07:34:24;11.30;99.90
5130;DHT22;2583;50.946;6.954;2022-11-10T07:36:51;11.30;99.90
5130;DHT22;2583;50.946;6.954;2022-11-10T07:39:17;11.30;99.90
5130;DHT22;2583;50.946;6.954;2022-11-10T07:41:44;11.30;99.90
5130;DHT22;2583;50.946;6.954;2022-11-10T07:44:17;11.30;99.90
5130;DHT22;2583;50.946;6.954;2022-11-10T07:46:44;11.30;99.90
5130;DHT22;2583;50.946;6.954;2022-11-10T07:49:11;11.40;99.90
5130;DHT22;2583;50.946;6.954;2022-11-10T07:51:37;11.40;99.90
5130;DHT22;2583;50.946;6.954;2022-11-10T07:54:04;11.40;99.90
5130;DHT22;2583;50.946;6.954;2022-11-10T07:56:31;11.40;99.90
5130;DHT22;2583;50.946;6.954;2022-11-10T07:58:58;11.40;99.90
5130;DHT22;2583;50.946;6.954;2022-11-10T08:01:24;11.50;99.90
5130;DHT22;2583;50.946;6.954;2022-11-10T08:03:51;11.50;99.90
5130;DHT22;2583;50.946;6.954;2022-11-10T08:06:18;11.50;99.90
5130;DHT22;2583;50.946;6.954;2022-11-10T08:08:45;11.60;99.90
5130;DHT22;2583;50.946;6.954;2022-11-10T08:11:12;11.60;99.90
5130;DHT22;2583;50.946;6.954;2022-11-10T08:13:40;11.60;99.90
5130;DHT22;2583;50.946;6.954;2022-11-10T08:16:07;11.60;99.90
5130;DHT22;2583;50.946;6.954;2022-11-10T08:18:34;11.70;99.90
5130;DHT22;2583;50.946;6.954;2022-11-10T08:21:02;11.70;99.90
5130;DHT22;2583;50.946;6.954;2022-11-10T08:23:29;11.80;99.90
5130;DHT22;2583;50.946;6.954;2022-11-10T08:25:57;11.80;99.90
5130;DHT22;2583;50.946;6.954;2022-11-10T08:28:25;11.90;99.90
5130;DHT22;2583;50.946;6.954;2022-11-10T08:30:52;11.90;99.90
5130;DHT22;2583;50.946;6.954;2022-11-10T08:33:20;12.00;99.90
5130;DHT22;2583;50.946;6.954;2022-11-10T08:35:49;12.10;99.90
5130;DHT22;2583;50.946;6.954;2022-11-10T08:38:19;12.10;99.90
5130;DHT22;2583;50.946;6.954;2022-11-10T08:40:46;12.20;99.90
5130;DHT22;2583;50.946;6.954;2022-11-10T08:43:14;12.20;99.90
5130;DHT22;2583;50.946;6.954;2022-11-10T08:45:42;12.30;99.90
5130;DHT22;2583;50.946;6.954;2022-11-10T08:48:17;12.40;99.90
5130;DHT22;2583;50.946;6.954;2022-11-10T08:50:46;12.40;99.90
5130;DHT22;2583;50.946;6.954;2022-11-10T08:53:15;12.60;99.90
5130;DHT22;2583;50.946;6.954;2022-11-10T08:55:43;12.70;99.90
5130;DHT22;2583;50.946;6.954;2022-11-10T08:58:12;12.80;99.90
5130;DHT22;2583;50.946;6.954;2022-11-10T09:00:39;12.80;99.90
5130;DHT22;2583;50.946;6.954;2022-11-10T09:03:17;12.90;99.90
5130;DHT22;2583;50.946;6.954;2022-11-10T09:05:46;13.10;99.90
5130;DHT22;2583;50.946;6.954;2022-11-10T09:08:14;13.20;99.90
5130;DHT22;2583;50.946;6.954;2022-11-10T09:10:42;13.30;99.90
5130;DHT22;2583;50.946;6.954;2022-11-10T09:13:11;13.40;99.90
5130;DHT22;2583;50.946;6.954;2022-11-10T09:15:38;13.50;99.90
5130;DHT22;2583;50.946;6.954;2022-11-10T09:18:06;13.70;99.90
5130;DHT22;2583;50.946;6.954;2022-11-10T09:20:35;13.80;99.90
5130;DHT22;2583;50.946;6.954;2022-11-10T09:25:35;14.00;99.90
5130;DHT22;2583;50.946;6.954;2022-11-10T09:28:02;14.00;99.90
5130;DHT22;2583;50.946;6.954;2022-11-10T09:30:30;14.10;99.90
5130;DHT22;2583;50.946;6.954;2022-11-10T09:32:59;14.20;99.90
5130;DHT22;2583;50.946;6.954;2022-11-10T09:35:26;14.20;99.70
5130;DHT22;2583;50.946;6.954;2022-11-10T09:37:53;14.30;99.50
5130;DHT22;2583;50.946;6.954;2022-11-10T09:40:59;14.40;98.50
5130;DHT22;2583;50.946;6.954;2022-11-10T09:46:31;14.70;97.50
5130;DHT22;2583;50.946;6.954;2022-11-10T09:49:24;14.70;96.80
5130;DHT22;2583;50.946;6.954;2022-11-10T09:51:53;14.70;95.80
5130;DHT22;2583;50.946;6.954;2022-11-10T09:54:48;14.70;96.40
5130;DHT22;2583;50.946;6.954;2022-11-10T09:57:20;14.80;95.50
5130;DHT22;2583;50.946;6.954;2022-11-10T09:59:48;14.90;95.80
5130;DHT22;2583;50.946;6.954;2022-11-10T10:02:23;15.00;93.60
5130;DHT22;2583;50.946;6.954;2022-11-10T10:07:44;15.10;93.00
5130;DHT22;2583;50.946;6.954;2022-11-10T10:10:41;15.10;92.70
5130;DHT22;2583;50.946;6.954;2022-11-10T10:16:16;15.20;92.20
5130;DHT22;2583;50.946;6.954;2022-11-10T10:22:42;15.40;90.00
5130;DHT22;2583;50.946;6.954;2022-11-10T10:24:36;15.40;88.90
5130;DHT22;2583;50.946;6.954;2022-11-10T10:27:05;15.50;85.60
5130;DHT22;2583;50.946;6.954;2022-11-10T10:29:45;15.60;85.20
5130;DHT22;2583;50.946;6.954;2022-11-10T10:32:14;15.60;83.20
5130;DHT22;2583;50.946;6.954;2022-11-10T10:34:42;15.60;79.00
5130;DHT22;2583;50.946;6.954;2022-11-10T10:37:29;15.60;79.50
5130;DHT22;2583;50.946;6.954;2022-11-10T10:39:59;15.60;79.30
5130;DHT22;2583;50.946;6.954;2022-11-10T10:42:34;15.70;77.50
5130;DHT22;2583;50.946;6.954;2022-11-10T10:47:49;15.80;68.40
5130;DHT22;2583;50.946;6.954;2022-11-10T10:50:29;15.80;68.90
5130;DHT22;2583;50.946;6.954;2022-11-10T10:56:12;16.00;67.60
5130;DHT22;2583;50.946;6.954;2022-11-10T10:58:55;16.00;63.10
5130;DHT22;2583;50.946;6.954;2022-11-10T11:01:31;16.00;61.60
5130;DHT22;2583;50.946;6.954;2022-11-10T11:04:00;16.00;61.20
5130;DHT22;2583;50.946;6.954;2022-11-10T11:06:31;16.00;60.70
5130;DHT22;2583;50.946;6.954;2022-11-10T11:09:05;16.10;60.10
5130;DHT22;2583;50.946;6.954;2022-11-10T11:11:37;16.10;59.70
5130;DHT22;2583;50.946;6.954;2022-11-10T11:17:02;16.10;58.20
5130;DHT22;2583;50.946;6.954;2022-11-10T11:19:32;16.10;57.30
5130;DHT22;2583;50.946;6.954;2022-11-10T11:22:34;16.10;57.60
5130;DHT22;2583;50.946;6.954;2022-11-10T11:25:37;16.20;57.70
5130;DHT22;2583;50.946;6.954;2022-11-10T11:28:31;16.20;55.60
5130;DHT22;2583;50.946;6.954;2022-11-10T11:31:09;16.20;55.40
5130;DHT22;2583;50.946;6.954;2022-11-10T11:42:03;16.30;54.60
5130;DHT22;2583;50.946;6.954;2022-11-10T11:49:53;16.40;53.10
5130;DHT22;2583;50.946;6.954;2022-11-10T11:52:33;16.50;51.90
5130;DHT22;2583;50.946;6.954;2022-11-10T11:55:28;16.50;51.30
5130;DHT22;2583;50.946;6.954;2022-11-10T12:00:48;16.70;50.50
5130;DHT22;2583;50.946;6.954;2022-11-10T12:06:30;16.70;48.90
5130;DHT22;2583;50.946;6.954;2022-11-10T12:12:23;16.70;49.20
5130;DHT22;2583;50.946;6.954;2022-11-10T12:20:57;17.00;47.70
5130;DHT22;2583;50.946;6.954;2022-11-10T12:29:03;17.40;45.70
5130;DHT22;2583;50.946;6.954;2022-11-10T12:31:33;17.50;45.00
5130;DHT22;2583;50.946;6.954;2022-11-10T12:36:50;17.70;44.00
5130;DHT22;2583;50.946;6.954;2022-11-10T12:39:23;17.70;43.50
5130;DHT22;2583;50.946;6.954;2022-11-10T12:42:01;17.90;43.10
5130;DHT22;2583;50.946;6.954;2022-11-10T12:44:54;18.20;42.40
5130;DHT22;2583;50.946;6.954;2022-11-10T12:47:25;18.20;40.40
5130;DHT22;2583;50.946;6.954;2022-11-10T12:50:04;18.20;40.00
5130;DHT22;2583;50.946;6.954;2022-11-10T12:52:39;18.30;39.30
5130;DHT22;2583;50.946;6.954;2022-11-10T12:55:12;18.40;39.50
5130;DHT22;2583;50.946;6.954;2022-11-10T12:57:41;18.50;38.30
5130;DHT22;2583;50.946;6.954;2022-11-10T13:00:26;18.40;37.30
5130;DHT22;2583;50.946;6.954;2022-11-10T13:02:55;18.50;38.30
5130;DHT22;2583;50.946;6.954;2022-11-10T13:05:33;18.50;36.20
5130;DHT22;2583;50.946;6.954;2022-11-10T13:13:19;18.90;35.20
5130;DHT22;2583;50.946;6.954;2022-11-10T13:15:51;19.00;33.90
5130;DHT22;2583;50.946;6.954;2022-11-10T13:20:58;19.00;32.70
5130;DHT22;2583;50.946;6.954;2022-11-10T13:23:31;19.00;32.60
5130;DHT22;2583;50.946;6.954;2022-11-10T13:26:05;18.70;31.50
5130;DHT22;2583;50.946;6.954;2022-11-10T13:28:55;18.80;31.50
5130;DHT22;2583;50.946;6.954;2022-11-10T13:34:11;19.00;31.20
5130;DHT22;2583;50.946;6.954;2022-11-10T13:36:41;19.10;29.80
5130;DHT22;2583;50.946;6.954;2022-11-10T13:39:21;18.90;29.80
5130;DHT22;2583;50.946;6.954;2022-11-10T13:41:58;18.60;30.20
5130;DHT22;2583;50.946;6.954;2022-11-10T13:57:39;18.00;30.80
5130;DHT22;2583;50.946;6.954;2022-11-10T14:02:48;18.20;30.80
5130;DHT22;2583;50.946;6.954;2022-11-10T14:11:11;17.70;29.80
5130;DHT22;2583;50.946;6.954;2022-11-10T14:13:46;17.60;30.20
5130;DHT22;2583;50.946;6.954;2022-11-10T14:16:18;17.40;30.30
5130;DHT22;2583;50.946;6.954;2022-11-10T14:18:54;17.30;30.50
5130;DHT22;2583;50.946;6.954;2022-11-10T14:21:29;17.20;30.70
5130;DHT22;2583;50.946;6.954;2022-11-10T14:24:06;17.10;30.90
5130;DHT22;2583;50.946;6.954;2022-11-10T14:26:47;17.10;30.90
5130;DHT22;2583;50.946;6.954;2022-11-10T14:29:26;17.00;30.70
5130;DHT22;2583;50.946;6.954;2022-11-10T14:31:56;17.00;31.20
5130;DHT22;2583;50.946;6.954;2022-11-10T14:34:24;16.90;31.50
5130;DHT22;2583;50.946;6.954;2022-11-10T14:36:57;16.90;31.60
5130;DHT22;2583;50.946;6.954;2022-11-10T14:39:32;16.80;31.50
5130;DHT22;2583;50.946;6.954;2022-11-10T14:42:02;16.80;31.40
5130;DHT22;2583;50.946;6.954;2022-11-10T14:44:31;16.80;31.20
5130;DHT22;2583;50.946;6.954;2022-11-10T14:47:21;16.70;31.20
5130;DHT22;2583;50.946;6.954;2022-11-10T14:52:31;16.70;31.20
5130;DHT22;2583;50.946;6.954;2022-11-10T14:54:58;16.60;30.80
5130;DHT22;2583;50.946;6.954;2022-11-10T14:57:25;16.50;30.80
5130;DHT22;2583;50.946;6.954;2022-11-10T14:59:51;16.50;31.30
5130;DHT22;2583;50.946;6.954;2022-11-10T15:02:18;16.40;31.40
5130;DHT22;2583;50.946;6.954;2022-11-10T15:04:48;16.40;31.80
5130;DHT22;2583;50.946;6.954;2022-11-10T15:07:16;16.40;32.00
5130;DHT22;2583;50.946;6.954;2022-11-10T15:10:26;16.30;32.20
5130;DHT22;2583;50.946;6.954;2022-11-10T15:13:49;16.20;32.70
5130;DHT22;2583;50.946;6.954;2022-11-10T15:15:51;16.20;32.70
5130;DHT22;2583;50.946;6.954;2022-11-10T15:18:27;16.20;33.00
5130;DHT22;2583;50.946;6.954;2022-11-10T15:21:01;16.10;33.50
5130;DHT22;2583;50.946;6.954;2022-11-10T15:23:39;16.10;33.80
5130;DHT22;2583;50.946;6.954;2022-11-10T15:26:17;16.10;34.00
5130;DHT22;2583;50.946;6.954;2022-11-10T15:28:45;16.00;34.50
5130;DHT22;2583;50.946;6.954;2022-11-10T15:31:27;16.00;34.80
5130;DHT22;2583;50.946;6.954;2022-11-10T15:34:00;16.00;36.00
5130;DHT22;2583;50.946;6.954;2022-11-10T15:36:32;16.00;37.10
5130;DHT22;2583;50.946;6.954;2022-11-10T15:39:15;15.90;38.20
5130;DHT22;2583;50.946;6.954;2022-11-10T15:41:55;15.90;39.60
5130;DHT22;2583;50.946;6.954;2022-11-10T15:44:24;15.90;40.50
5130;DHT22;2583;50.946;6.954;2022-11-10T15:46:53;15.90;41.70
5130;DHT22;2583;50.946;6.954;2022-11-10T15:49:36;15.90;42.70
5130;DHT22;2583;50.946;6.954;2022-11-10T15:52:15;15.80;43.00
5130;DHT22;2583;50.946;6.954;2022-11-10T15:54:43;15.80;44.20
5130;DHT22;2583;50.946;6.954;2022-11-10T15:57:15;15.70;46.00
5130;DHT22;2583;50.946;6.954;2022-11-10T15:59:43;15.60;48.00
5130;DHT22;2583;50.946;6.954;2022-11-10T16:02:23;15.60;52.10
5130;DHT22;2583;50.946;6.954;2022-11-10T16:04:51;15.50;55.70
5130;DHT22;2583;50.946;6.954;2022-11-10T16:07:25;15.40;59.00
5130;DHT22;2583;50.946;6.954;2022-11-10T16:09:52;15.30;63.50
5130;DHT22;2583;50.946;6.954;2022-11-10T16:12:21;15.20;68.80
5130;DHT22;2583;50.946;6.954;2022-11-10T16:14:50;15.10;73.30
5130;DHT22;2583;50.946;6.954;2022-11-10T16:17:18;15.00;77.60
5130;DHT22;2583;50.946;6.954;2022-11-10T16:19:45;15.00;80.60
5130;DHT22;2583;50.946;6.954;2022-11-10T16:22:12;14.90;83.00
5130;DHT22;2583;50.946;6.954;2022-11-10T16:24:40;14.80;85.30
5130;DHT22;2583;50.946;6.954;2022-11-10T16:27:10;14.70;87.40
5130;DHT22;2583;50.946;6.954;2022-11-10T16:29:38;14.60;89.50
5130;DHT22;2583;50.946;6.954;2022-11-10T16:32:05;14.50;90.50
5130;DHT22;2583;50.946;6.954;2022-11-10T16:34:32;14.50;91.90
5130;DHT22;2583;50.946;6.954;2022-11-10T16:36:59;14.40;92.40
5130;DHT22;2583;50.946;6.954;2022-11-10T16:39:26;14.40;92.80
5130;DHT22;2583;50.946;6.954;2022-11-10T16:41:53;14.30;93.80
5130;DHT22;2583;50.946;6.954;2022-11-10T16:44:20;14.30;93.90
5130;DHT22;2583;50.946;6.954;2022-11-10T16:46:52;14.30;94.30
5130;DHT22;2583;50.946;6.954;2022-11-10T16:49:30;14.20;94.80
5130;DHT22;2583;50.946;6.954;2022-11-10T16:52:02;14.20;95.30
5130;DHT22;2583;50.946;6.954;2022-11-10T16:54:29;14.10;95.90
5130;DHT22;2583;50.946;6.954;2022-11-10T16:56:56;14.00;95.90
5130;DHT22;2583;50.946;6.954;2022-11-10T16:59:23;14.00;96.40
5130;DHT22;2583;50.946;6.954;2022-11-10T17:01:52;14.00;96.80
5130;DHT22;2583;50.946;6.954;2022-11-10T17:04:19;14.00;97.20
5130;DHT22;2583;50.946;6.954;2022-11-10T17:06:46;13.90;97.20
5130;DHT22;2583;50.946;6.954;2022-11-10T17:09:16;13.80;97.70
5130;DHT22;2583;50.946;6.954;2022-11-10T17:11:44;13.80;97.90
5130;DHT22;2583;50.946;6.954;2022-11-10T17:14:12;13.80;98.10
5130;DHT22;2583;50.946;6.954;2022-11-10T17:16:42;13.80;98.60
5130;DHT22;2583;50.946;6.954;2022-11-10T17:19:19;13.70;98.80
5130;DHT22;2583;50.946;6.954;2022-11-10T17:21:48;13.70;98.70
5130;DHT22;2583;50.946;6.954;2022-11-10T17:24:16;13.60;98.70
5130;DHT22;2583;50.946;6.954;2022-11-10T17:26:44;13.60;98.70
5130;DHT22;2583;50.946;6.954;2022-11-10T17:29:19;13.60;98.40
5130;DHT22;2583;50.946;6.954;2022-11-10T17:31:47;13.50;99.20
5130;DHT22;2583;50.946;6.954;2022-11-10T17:34:15;13.50;99.40
5130;DHT22;2583;50.946;6.954;2022-11-10T17:36:42;13.40;99.50
5130;DHT22;2583;50.946;6.954;2022-11-10T17:39:12;13.30;99.60
5130;DHT22;2583;50.946;6.954;2022-11-10T17:41:39;13.30;99.90
5130;DHT22;2583;50.946;6.954;2022-11-10T17:44:14;13.20;99.90
5130;DHT22;2583;50.946;6.954;2022-11-10T17:46:41;13.20;99.90
5130;DHT22;2583;50.946;6.954;2022-11-10T17:49:08;13.20;99.90
5130;DHT22;2583;50.946;6.954;2022-11-10T17:51:35;13.20;99.90
5130;DHT22;2583;50.946;6.954;2022-11-10T17:54:02;13.10;99.90
5130;DHT22;2583;50.946;6.954;2022-11-10T17:56:30;13.00;99.90
5130;DHT22;2583;50.946;6.954;2022-11-10T17:58:57;13.00;99.90
5130;DHT22;2583;50.946;6.954;2022-11-10T18:01:24;13.00;99.90
5130;DHT22;2583;50.946;6.954;2022-11-10T18:03:51;13.00;99.90